sensor_id;sensor_type;location;lat;lon;timestamp;P1;durP1;ratioP1;P2;durP2;ratioP2
70985;SDS011;58645;43.068;25.610;2023-02-07T00:00:06;12.82;;;5.85;;
70985;SDS011;58645;43.068;25.610;2023-02-07T00:02:34;16.10;;;7.28;;
70985;SDS011;58645;43.068;25.610;2023-02-07T00:04:59;14.60;;;7.63;;
70985;SDS011;58645;43.068;25.610;2023-02-07T00:07:25;14.90;;;6.55;;
70985;SDS011;58645;43.068;25.610;2023-02-07T00:09:51;14.70;;;6.43;;
70985;SDS011;58645;43.068;25.610;2023-02-07T00:12:17;19.23;;;7.20;;
70985;SDS011;58645;43.068;25.610;2023-02-07T00:14:43;14.75;;;6.60;;
70985;SDS011;58645;43.068;25.610;2023-02-07T00:17:08;15.27;;;6.93;;
70985;SDS011;58645;43.068;25.610;2023-02-07T00:19:34;16.63;;;8.15;;
70985;SDS011;58645;43.068;25.610;2023-02-07T00:22:00;17.13;;;7.72;;
70985;SDS011;58645;43.068;25.610;2023-02-07T00:24:27;18.90;;;8.32;;
70985;SDS011;58645;43.068;25.610;2023-02-07T00:26:53;19.63;;;8.45;;
70985;SDS011;58645;43.068;25.610;2023-02-07T00:29:19;19.85;;;8.02;;
70985;SDS011;58645;43.068;25.610;2023-02-07T00:31:46;18.02;;;7.82;;
70985;SDS011;58645;43.068;25.610;2023-02-07T00:34:12;17.63;;;7.63;;
70985;SDS011;58645;43.068;25.610;2023-02-07T00:36:38;15.15;;;7.68;;
70985;SDS011;58645;43.068;25.610;2023-02-07T00:39:10;16.13;;;6.57;;
70985;SDS011;58645;43.068;25.610;2023-02-07T00:41:37;15.52;;;7.47;;
70985;SDS011;58645;43.068;25.610;2023-02-07T00:44:04;16.55;;;7.78;;
70985;SDS011;58645;43.068;25.610;2023-02-07T00:46:30;16.33;;;7.93;;
70985;SDS011;58645;43.068;25.610;2023-02-07T00:48:57;13.98;;;6.72;;
70985;SDS011;58645;43.068;25.610;2023-02-07T00:51:23;16.60;;;7.40;;
70985;SDS011;58645;43.068;25.610;2023-02-07T00:53:52;16.60;;;8.35;;
70985;SDS011;58645;43.068;25.610;2023-02-07T00:58:45;14.40;;;6.53;;
70985;SDS011;58645;43.068;25.610;2023-02-07T01:01:11;15.57;;;7.13;;
70985;SDS011;58645;43.068;25.610;2023-02-07T01:03:38;16.45;;;6.43;;
70985;SDS011;58645;43.068;25.610;2023-02-07T01:06:04;16.98;;;8.05;;
70985;SDS011;58645;43.068;25.610;2023-02-07T01:08:30;16.75;;;7.28;;
70985;SDS011;58645;43.068;25.610;2023-02-07T01:10:56;15.23;;;7.38;;
70985;SDS011;58645;43.068;25.610;2023-02-07T01:13:25;16.85;;;7.63;;
70985;SDS011;58645;43.068;25.610;2023-02-07T01:15:51;17.23;;;7.93;;
70985;SDS011;58645;43.068;25.610;2023-02-07T01:18:17;17.75;;;8.02;;
70985;SDS011;58645;43.068;25.610;2023-02-07T01:20:42;20.13;;;9.00;;
70985;SDS011;58645;43.068;25.610;2023-02-07T01:23:09;18.52;;;8.18;;
70985;SDS011;58645;43.068;25.610;2023-02-07T01:25:36;17.30;;;7.70;;
70985;SDS011;58645;43.068;25.610;2023-02-07T01:28:02;15.70;;;7.25;;
70985;SDS011;58645;43.068;25.610;2023-02-07T01:30:28;15.85;;;7.38;;
70985;SDS011;58645;43.068;25.610;2023-02-07T01:32:54;15.52;;;7.63;;
70985;SDS011;58645;43.068;25.610;2023-02-07T01:35:20;15.35;;;6.95;;
70985;SDS011;58645;43.068;25.610;2023-02-07T01:37:46;18.05;;;7.65;;
70985;SDS011;58645;43.068;25.610;2023-02-07T01:40:11;16.98;;;7.82;;
70985;SDS011;58645;43.068;25.610;2023-02-07T01:42:37;21.45;;;8.75;;
70985;SDS011;58645;43.068;25.610;2023-02-07T01:45:07;17.67;;;8.50;;
70985;SDS011;58645;43.068;25.610;2023-02-07T01:47:44;16.90;;;7.55;;
70985;SDS011;58645;43.068;25.610;2023-02-07T01:50:10;16.40;;;7.32;;
70985;SDS011;58645;43.068;25.610;2023-02-07T01:52:37;15.98;;;7.35;;
70985;SDS011;58645;43.068;25.610;2023-02-07T01:55:15;12.68;;;6.10;;
70985;SDS011;58645;43.068;25.610;2023-02-07T01:57:45;16.30;;;7.53;;
70985;SDS011;58645;43.068;25.610;2023-02-07T02:00:12;16.80;;;7.65;;
70985;SDS011;58645;43.068;25.610;2023-02-07T02:02:39;16.83;;;7.63;;
70985;SDS011;58645;43.068;25.610;2023-02-07T02:05:05;17.42;;;7.70;;
70985;SDS011;58645;43.068;25.610;2023-02-07T02:07:32;16.63;;;7.88;;
70985;SDS011;58645;43.068;25.610;2023-02-07T02:09:59;15.70;;;6.60;;
70985;SDS011;58645;43.068;25.610;2023-02-07T02:15:21;10.15;;;4.97;;
70985;SDS011;58645;43.068;25.610;2023-02-07T02:41:00;14.27;;;6.15;;
70985;SDS011;58645;43.068;25.610;2023-02-07T02:45:56;12.07;;;5.30;;
70985;SDS011;58645;43.068;25.610;2023-02-07T02:48:26;12.70;;;5.43;;
70985;SDS011;58645;43.068;25.610;2023-02-07T02:50:53;15.00;;;6.20;;
70985;SDS011;58645;43.068;25.610;2023-02-07T02:53:19;11.43;;;5.80;;
70985;SDS011;58645;43.068;25.610;2023-02-07T03:07:46;19.25;;;8.57;;
70985;SDS011;58645;43.068;25.610;2023-02-07T03:20:57;17.15;;;8.48;;
70985;SDS011;58645;43.068;25.610;2023-02-07T03:23:29;20.67;;;9.02;;
70985;SDS011;58645;43.068;25.610;2023-02-07T03:25:58;18.80;;;8.63;;
70985;SDS011;58645;43.068;25.610;2023-02-07T03:28:25;18.48;;;9.13;;
70985;SDS011;58645;43.068;25.610;2023-02-07T03:30:54;17.45;;;8.23;;
70985;SDS011;58645;43.068;25.610;2023-02-07T03:33:24;16.83;;;7.55;;
70985;SDS011;58645;43.068;25.610;2023-02-07T03:36:11;17.20;;;8.18;;
70985;SDS011;58645;43.068;25.610;2023-02-07T03:38:49;14.10;;;7.10;;
70985;SDS011;58645;43.068;25.610;2023-02-07T03:41:17;10.45;;;5.57;;
70985;SDS011;58645;43.068;25.610;2023-02-07T03:43:50;14.57;;;6.40;;
70985;SDS011;58645;43.068;25.610;2023-02-07T03:46:17;12.40;;;5.70;;
70985;SDS011;58645;43.068;25.610;2023-02-07T03:48:43;13.27;;;6.00;;
70985;SDS011;58645;43.068;25.610;2023-02-07T03:51:09;14.00;;;6.28;;
70985;SDS011;58645;43.068;25.610;2023-02-07T03:53:35;12.93;;;5.97;;
70985;SDS011;58645;43.068;25.610;2023-02-07T03:56:00;14.98;;;6.20;;
70985;SDS011;58645;43.068;25.610;2023-02-07T03:58:26;12.30;;;5.20;;
70985;SDS011;58645;43.068;25.610;2023-02-07T04:00:52;13.27;;;5.82;;
70985;SDS011;58645;43.068;25.610;2023-02-07T04:03:17;15.77;;;6.40;;
70985;SDS011;58645;43.068;25.610;2023-02-07T04:05:44;11.48;;;5.13;;
70985;SDS011;58645;43.068;25.610;2023-02-07T04:08:10;14.57;;;6.55;;
70985;SDS011;58645;43.068;25.610;2023-02-07T04:10:36;13.18;;;6.78;;
70985;SDS011;58645;43.068;25.610;2023-02-07T04:13:02;15.45;;;6.47;;
70985;SDS011;58645;43.068;25.610;2023-02-07T04:15:27;13.27;;;6.47;;
70985;SDS011;58645;43.068;25.610;2023-02-07T04:17:53;12.07;;;5.82;;
70985;SDS011;58645;43.068;25.610;2023-02-07T04:20:19;12.30;;;6.10;;
70985;SDS011;58645;43.068;25.610;2023-02-07T04:22:44;11.98;;;6.25;;
70985;SDS011;58645;43.068;25.610;2023-02-07T04:25:10;11.82;;;5.93;;
70985;SDS011;58645;43.068;25.610;2023-02-07T04:27:36;13.93;;;5.85;;
70985;SDS011;58645;43.068;25.610;2023-02-07T04:30:02;12.93;;;5.57;;
70985;SDS011;58645;43.068;25.610;2023-02-07T04:32:28;12.77;;;5.90;;
70985;SDS011;58645;43.068;25.610;2023-02-07T04:34:54;16.15;;;6.18;;
70985;SDS011;58645;43.068;25.610;2023-02-07T04:37:19;12.00;;;5.22;;
70985;SDS011;58645;43.068;25.610;2023-02-07T04:39:45;12.20;;;6.00;;
70985;SDS011;58645;43.068;25.610;2023-02-07T04:42:11;11.27;;;5.20;;
70985;SDS011;58645;43.068;25.610;2023-02-07T04:44:37;13.32;;;5.85;;
70985;SDS011;58645;43.068;25.610;2023-02-07T04:47:03;12.48;;;6.43;;
70985;SDS011;58645;43.068;25.610;2023-02-07T04:49:28;15.10;;;6.70;;
70985;SDS011;58645;43.068;25.610;2023-02-07T04:51:54;13.07;;;5.82;;
70985;SDS011;58645;43.068;25.610;2023-02-07T04:54:20;15.07;;;6.80;;
70985;SDS011;58645;43.068;25.610;2023-02-07T04:56:46;15.80;;;5.95;;
70985;SDS011;58645;43.068;25.610;2023-02-07T04:59:11;11.35;;;5.95;;
70985;SDS011;58645;43.068;25.610;2023-02-07T05:01:37;14.80;;;6.30;;
70985;SDS011;58645;43.068;25.610;2023-02-07T05:04:03;13.60;;;7.20;;
70985;SDS011;58645;43.068;25.610;2023-02-07T05:06:29;14.77;;;6.82;;
70985;SDS011;58645;43.068;25.610;2023-02-07T05:08:54;13.85;;;6.97;;
70985;SDS011;58645;43.068;25.610;2023-02-07T05:11:21;15.02;;;9.05;;
70985;SDS011;58645;43.068;25.610;2023-02-07T05:13:46;14.77;;;6.55;;
70985;SDS011;58645;43.068;25.610;2023-02-07T05:16:13;14.75;;;6.28;;
70985;SDS011;58645;43.068;25.610;2023-02-07T05:18:39;16.77;;;6.32;;
70985;SDS011;58645;43.068;25.610;2023-02-07T05:21:04;14.52;;;6.40;;
70985;SDS011;58645;43.068;25.610;2023-02-07T05:23:30;13.48;;;6.25;;
70985;SDS011;58645;43.068;25.610;2023-02-07T05:25:56;13.25;;;6.00;;
70985;SDS011;58645;43.068;25.610;2023-02-07T05:28:22;11.60;;;5.68;;
70985;SDS011;58645;43.068;25.610;2023-02-07T05:30:51;13.60;;;5.55;;
70985;SDS011;58645;43.068;25.610;2023-02-07T05:33:18;12.60;;;5.75;;
70985;SDS011;58645;43.068;25.610;2023-02-07T05:35:43;14.57;;;6.40;;
70985;SDS011;58645;43.068;25.610;2023-02-07T05:38:11;14.75;;;6.57;;
70985;SDS011;58645;43.068;25.610;2023-02-07T05:40:38;13.65;;;6.32;;
70985;SDS011;58645;43.068;25.610;2023-02-07T05:43:06;14.23;;;6.55;;
70985;SDS011;58645;43.068;25.610;2023-02-07T05:45:33;16.13;;;6.80;;
70985;SDS011;58645;43.068;25.610;2023-02-07T05:47:59;18.02;;;7.45;;
70985;SDS011;58645;43.068;25.610;2023-02-07T05:50:25;18.48;;;7.35;;
70985;SDS011;58645;43.068;25.610;2023-02-07T05:52:51;17.10;;;8.10;;
70985;SDS011;58645;43.068;25.610;2023-02-07T05:55:20;19.27;;;7.93;;
70985;SDS011;58645;43.068;25.610;2023-02-07T05:57:45;26.38;;;8.82;;
70985;SDS011;58645;43.068;25.610;2023-02-07T06:00:12;26.58;;;9.48;;
70985;SDS011;58645;43.068;25.610;2023-02-07T06:02:47;21.90;;;8.35;;
70985;SDS011;58645;43.068;25.610;2023-02-07T06:05:14;19.92;;;7.82;;
70985;SDS011;58645;43.068;25.610;2023-02-07T06:07:44;14.48;;;6.32;;
70985;SDS011;58645;43.068;25.610;2023-02-07T06:10:10;15.88;;;6.88;;
70985;SDS011;58645;43.068;25.610;2023-02-07T06:12:37;15.00;;;7.22;;
70985;SDS011;58645;43.068;25.610;2023-02-07T06:15:03;19.50;;;8.73;;
70985;SDS011;58645;43.068;25.610;2023-02-07T06:17:29;18.77;;;7.45;;
70985;SDS011;58645;43.068;25.610;2023-02-07T06:19:55;18.83;;;9.90;;
70985;SDS011;58645;43.068;25.610;2023-02-07T06:22:21;32.47;;;13.10;;
70985;SDS011;58645;43.068;25.610;2023-02-07T06:24:47;32.45;;;12.52;;
70985;SDS011;58645;43.068;25.610;2023-02-07T06:27:13;26.95;;;9.85;;
70985;SDS011;58645;43.068;25.610;2023-02-07T06:29:38;22.05;;;10.68;;
70985;SDS011;58645;43.068;25.610;2023-02-07T06:32:04;23.05;;;9.70;;
70985;SDS011;58645;43.068;25.610;2023-02-07T06:34:30;21.45;;;9.38;;
70985;SDS011;58645;43.068;25.610;2023-02-07T06:36:55;25.98;;;9.68;;
70985;SDS011;58645;43.068;25.610;2023-02-07T06:39:21;22.08;;;9.73;;
70985;SDS011;58645;43.068;25.610;2023-02-07T06:41:50;25.77;;;10.43;;
70985;SDS011;58645;43.068;25.610;2023-02-07T06:44:21;22.77;;;10.18;;
70985;SDS011;58645;43.068;25.610;2023-02-07T06:46:56;22.75;;;9.82;;
70985;SDS011;58645;43.068;25.610;2023-02-07T06:49:22;18.42;;;8.45;;
70985;SDS011;58645;43.068;25.610;2023-02-07T06:51:48;20.48;;;8.15;;
70985;SDS011;58645;43.068;25.610;2023-02-07T06:54:13;16.85;;;7.63;;
70985;SDS011;58645;43.068;25.610;2023-02-07T06:56:39;17.42;;;7.57;;
70985;SDS011;58645;43.068;25.610;2023-02-07T06:59:05;19.08;;;8.80;;
70985;SDS011;58645;43.068;25.610;2023-02-07T07:01:31;18.83;;;8.38;;
70985;SDS011;58645;43.068;25.610;2023-02-07T07:03:57;20.58;;;8.73;;
70985;SDS011;58645;43.068;25.610;2023-02-07T07:06:22;23.48;;;9.98;;
70985;SDS011;58645;43.068;25.610;2023-02-07T07:08:49;18.83;;;9.85;;
70985;SDS011;58645;43.068;25.610;2023-02-07T07:11:15;24.67;;;10.23;;
70985;SDS011;58645;43.068;25.610;2023-02-07T07:13:44;20.88;;;10.50;;
70985;SDS011;58645;43.068;25.610;2023-02-07T07:16:11;30.02;;;12.77;;
70985;SDS011;58645;43.068;25.610;2023-02-07T07:18:37;38.42;;;16.02;;
70985;SDS011;58645;43.068;25.610;2023-02-07T07:21:03;35.40;;;16.58;;
70985;SDS011;58645;43.068;25.610;2023-02-07T07:23:29;27.90;;;13.18;;
70985;SDS011;58645;43.068;25.610;2023-02-07T07:25:55;23.52;;;11.85;;
70985;SDS011;58645;43.068;25.610;2023-02-07T07:28:20;19.90;;;10.85;;
70985;SDS011;58645;43.068;25.610;2023-02-07T07:30:46;18.58;;;9.18;;
70985;SDS011;58645;43.068;25.610;2023-02-07T07:33:12;15.77;;;8.55;;
70985;SDS011;58645;43.068;25.610;2023-02-07T07:35:44;19.83;;;10.10;;
70985;SDS011;58645;43.068;25.610;2023-02-07T07:38:10;18.85;;;9.10;;
70985;SDS011;58645;43.068;25.610;2023-02-07T07:40:35;14.20;;;7.72;;
70985;SDS011;58645;43.068;25.610;2023-02-07T07:43:01;13.80;;;6.97;;
70985;SDS011;58645;43.068;25.610;2023-02-07T07:45:27;13.85;;;6.00;;
70985;SDS011;58645;43.068;25.610;2023-02-07T07:47:53;12.13;;;6.03;;
70985;SDS011;58645;43.068;25.610;2023-02-07T07:50:33;11.45;;;5.65;;
70985;SDS011;58645;43.068;25.610;2023-02-07T07:52:59;12.35;;;6.95;;
70985;SDS011;58645;43.068;25.610;2023-02-07T07:55:28;9.77;;;6.32;;
70985;SDS011;58645;43.068;25.610;2023-02-07T07:58:05;11.27;;;6.00;;
70985;SDS011;58645;43.068;25.610;2023-02-07T08:00:32;10.93;;;5.47;;
70985;SDS011;58645;43.068;25.610;2023-02-07T08:03:01;10.27;;;6.63;;
70985;SDS011;58645;43.068;25.610;2023-02-07T08:05:27;8.07;;;5.78;;
70985;SDS011;58645;43.068;25.610;2023-02-07T08:07:52;10.25;;;6.10;;
70985;SDS011;58645;43.068;25.610;2023-02-07T08:10:18;9.68;;;5.53;;
70985;SDS011;58645;43.068;25.610;2023-02-07T08:12:44;9.00;;;5.97;;
70985;SDS011;58645;43.068;25.610;2023-02-07T08:15:09;8.63;;;5.10;;
70985;SDS011;58645;43.068;25.610;2023-02-07T08:17:35;10.55;;;6.30;;
70985;SDS011;58645;43.068;25.610;2023-02-07T08:20:01;11.60;;;6.70;;
70985;SDS011;58645;43.068;25.610;2023-02-07T08:22:29;12.88;;;7.30;;
70985;SDS011;58645;43.068;25.610;2023-02-07T08:24:55;8.50;;;6.32;;
70985;SDS011;58645;43.068;25.610;2023-02-07T08:27:21;10.65;;;5.53;;
70985;SDS011;58645;43.068;25.610;2023-02-07T08:29:47;11.27;;;6.68;;
70985;SDS011;58645;43.068;25.610;2023-02-07T08:32:13;9.50;;;6.95;;
70985;SDS011;58645;43.068;25.610;2023-02-07T08:34:39;8.73;;;6.28;;
70985;SDS011;58645;43.068;25.610;2023-02-07T08:37:05;10.00;;;5.43;;
70985;SDS011;58645;43.068;25.610;2023-02-07T08:39:35;8.20;;;5.50;;
70985;SDS011;58645;43.068;25.610;2023-02-07T08:42:01;9.98;;;5.72;;
70985;SDS011;58645;43.068;25.610;2023-02-07T08:44:29;9.77;;;5.57;;
70985;SDS011;58645;43.068;25.610;2023-02-07T08:46:55;9.27;;;5.65;;
70985;SDS011;58645;43.068;25.610;2023-02-07T08:49:21;12.63;;;6.00;;
70985;SDS011;58645;43.068;25.610;2023-02-07T08:51:46;10.10;;;6.28;;
70985;SDS011;58645;43.068;25.610;2023-02-07T08:54:12;8.02;;;4.10;;
70985;SDS011;58645;43.068;25.610;2023-02-07T08:56:38;7.85;;;4.78;;
70985;SDS011;58645;43.068;25.610;2023-02-07T08:59:04;6.57;;;4.05;;
70985;SDS011;58645;43.068;25.610;2023-02-07T09:01:30;6.95;;;4.07;;
70985;SDS011;58645;43.068;25.610;2023-02-07T09:06:40;7.30;;;4.43;;
70985;SDS011;58645;43.068;25.610;2023-02-07T09:09:06;6.60;;;3.55;;
70985;SDS011;58645;43.068;25.610;2023-02-07T09:11:34;9.55;;;4.53;;
70985;SDS011;58645;43.068;25.610;2023-02-07T09:14:00;7.05;;;3.92;;
70985;SDS011;58645;43.068;25.610;2023-02-07T09:16:26;6.45;;;3.88;;
70985;SDS011;58645;43.068;25.610;2023-02-07T09:18:52;6.18;;;3.78;;
70985;SDS011;58645;43.068;25.610;2023-02-07T09:21:18;7.95;;;4.85;;
70985;SDS011;58645;43.068;25.610;2023-02-07T09:23:43;8.38;;;4.68;;
70985;SDS011;58645;43.068;25.610;2023-02-07T09:26:10;8.32;;;5.20;;
70985;SDS011;58645;43.068;25.610;2023-02-07T09:28:41;8.13;;;5.45;;
70985;SDS011;58645;43.068;25.610;2023-02-07T09:31:08;7.75;;;5.50;;
70985;SDS011;58645;43.068;25.610;2023-02-07T09:33:35;8.38;;;5.45;;
70985;SDS011;58645;43.068;25.610;2023-02-07T09:36:02;7.40;;;4.40;;
70985;SDS011;58645;43.068;25.610;2023-02-07T09:38:28;7.10;;;4.25;;
70985;SDS011;58645;43.068;25.610;2023-02-07T09:40:55;7.07;;;4.57;;
70985;SDS011;58645;43.068;25.610;2023-02-07T09:43:37;8.45;;;4.60;;
70985;SDS011;58645;43.068;25.610;2023-02-07T09:46:30;8.07;;;4.45;;
70985;SDS011;58645;43.068;25.610;2023-02-07T09:49:46;7.72;;;5.03;;
70985;SDS011;58645;43.068;25.610;2023-02-07T09:51:53;8.25;;;6.18;;
70985;SDS011;58645;43.068;25.610;2023-02-07T09:54:25;9.57;;;6.35;;
70985;SDS011;58645;43.068;25.610;2023-02-07T09:57:02;8.60;;;6.00;;
70985;SDS011;58645;43.068;25.610;2023-02-07T09:59:52;8.25;;;5.05;;
70985;SDS011;58645;43.068;25.610;2023-02-07T10:02:37;9.80;;;6.47;;
70985;SDS011;58645;43.068;25.610;2023-02-07T10:05:18;9.95;;;6.00;;
70985;SDS011;58645;43.068;25.610;2023-02-07T10:07:47;8.70;;;5.75;;
70985;SDS011;58645;43.068;25.610;2023-02-07T10:10:15;8.30;;;5.57;;
70985;SDS011;58645;43.068;25.610;2023-02-07T10:12:55;8.90;;;6.38;;
70985;SDS011;58645;43.068;25.610;2023-02-07T10:21:05;7.82;;;5.43;;
70985;SDS011;58645;43.068;25.610;2023-02-07T10:23:50;10.95;;;6.63;;
70985;SDS011;58645;43.068;25.610;2023-02-07T10:26:41;9.40;;;5.18;;
70985;SDS011;58645;43.068;25.610;2023-02-07T10:29:31;9.32;;;5.65;;
70985;SDS011;58645;43.068;25.610;2023-02-07T10:34:35;9.35;;;6.50;;
70985;SDS011;58645;43.068;25.610;2023-02-07T10:37:12;8.88;;;6.53;;
70985;SDS011;58645;43.068;25.610;2023-02-07T10:39:43;8.93;;;6.30;;
70985;SDS011;58645;43.068;25.610;2023-02-07T10:42:15;11.48;;;6.25;;
70985;SDS011;58645;43.068;25.610;2023-02-07T10:44:41;9.65;;;6.60;;
70985;SDS011;58645;43.068;25.610;2023-02-07T10:47:08;10.82;;;6.00;;
70985;SDS011;58645;43.068;25.610;2023-02-07T10:49:41;10.18;;;6.03;;
70985;SDS011;58645;43.068;25.610;2023-02-07T10:55:04;9.50;;;5.50;;
70985;SDS011;58645;43.068;25.610;2023-02-07T10:57:32;12.02;;;7.72;;
70985;SDS011;58645;43.068;25.610;2023-02-07T11:04:57;11.02;;;6.72;;
70985;SDS011;58645;43.068;25.610;2023-02-07T11:07:24;10.35;;;7.15;;
70985;SDS011;58645;43.068;25.610;2023-02-07T11:09:50;35.25;;;18.42;;
70985;SDS011;58645;43.068;25.610;2023-02-07T11:12:33;16.65;;;10.98;;
70985;SDS011;58645;43.068;25.610;2023-02-07T11:15:20;12.90;;;8.25;;
70985;SDS011;58645;43.068;25.610;2023-02-07T11:17:52;12.02;;;8.55;;
70985;SDS011;58645;43.068;25.610;2023-02-07T11:22:53;9.52;;;6.22;;
70985;SDS011;58645;43.068;25.610;2023-02-07T11:28:06;10.63;;;6.90;;
70985;SDS011;58645;43.068;25.610;2023-02-07T11:30:40;15.70;;;9.38;;
70985;SDS011;58645;43.068;25.610;2023-02-07T11:33:09;13.73;;;9.38;;
70985;SDS011;58645;43.068;25.610;2023-02-07T11:39:01;21.63;;;12.95;;
70985;SDS011;58645;43.068;25.610;2023-02-07T11:41:28;16.33;;;10.32;;
70985;SDS011;58645;43.068;25.610;2023-02-07T11:43:58;22.95;;;11.80;;
70985;SDS011;58645;43.068;25.610;2023-02-07T11:46:34;10.65;;;7.57;;
70985;SDS011;58645;43.068;25.610;2023-02-07T11:49:03;11.70;;;6.93;;
70985;SDS011;58645;43.068;25.610;2023-02-07T11:51:33;10.40;;;6.93;;
70985;SDS011;58645;43.068;25.610;2023-02-07T11:54:01;11.10;;;6.97;;
70985;SDS011;58645;43.068;25.610;2023-02-07T11:56:35;13.60;;;7.15;;
70985;SDS011;58645;43.068;25.610;2023-02-07T11:59:07;12.02;;;7.95;;
70985;SDS011;58645;43.068;25.610;2023-02-07T12:01:39;12.02;;;7.13;;
70985;SDS011;58645;43.068;25.610;2023-02-07T12:04:14;13.85;;;7.72;;
70985;SDS011;58645;43.068;25.610;2023-02-07T12:09:28;14.27;;;8.77;;
70985;SDS011;58645;43.068;25.610;2023-02-07T12:11:55;14.38;;;9.95;;
70985;SDS011;58645;43.068;25.610;2023-02-07T12:14:27;25.02;;;15.73;;
70985;SDS011;58645;43.068;25.610;2023-02-07T12:17:04;16.08;;;9.95;;
70985;SDS011;58645;43.068;25.610;2023-02-07T12:19:41;17.40;;;9.70;;
70985;SDS011;58645;43.068;25.610;2023-02-07T12:22:21;11.75;;;7.93;;
70985;SDS011;58645;43.068;25.610;2023-02-07T12:24:54;20.02;;;9.88;;
70985;SDS011;58645;43.068;25.610;2023-02-07T12:27:21;19.23;;;9.98;;
70985;SDS011;58645;43.068;25.610;2023-02-07T12:30:03;16.67;;;9.68;;
70985;SDS011;58645;43.068;25.610;2023-02-07T12:32:47;12.85;;;8.70;;
70985;SDS011;58645;43.068;25.610;2023-02-07T12:40:42;15.23;;;7.78;;
70985;SDS011;58645;43.068;25.610;2023-02-07T12:54:22;14.75;;;7.65;;
70985;SDS011;58645;43.068;25.610;2023-02-07T13:18:35;18.73;;;9.75;;
70985;SDS011;58645;43.068;25.610;2023-02-07T13:24:03;15.60;;;7.85;;
70985;SDS011;58645;43.068;25.610;2023-02-07T13:26:35;15.50;;;7.63;;
70985;SDS011;58645;43.068;25.610;2023-02-07T13:29:02;16.17;;;7.78;;
70985;SDS011;58645;43.068;25.610;2023-02-07T13:31:42;15.82;;;8.32;;
70985;SDS011;58645;43.068;25.610;2023-02-07T13:36:51;17.15;;;7.95;;
70985;SDS011;58645;43.068;25.610;2023-02-07T13:50:30;17.67;;;9.02;;
70985;SDS011;58645;43.068;25.610;2023-02-07T13:53:16;16.35;;;7.70;;
70985;SDS011;58645;43.068;25.610;2023-02-07T13:55:46;16.08;;;8.82;;
70985;SDS011;58645;43.068;25.610;2023-02-07T14:01:16;22.15;;;9.95;;
70985;SDS011;58645;43.068;25.610;2023-02-07T14:04:07;18.92;;;9.32;;
70985;SDS011;58645;43.068;25.610;2023-02-07T14:06:41;13.32;;;7.93;;
70985;SDS011;58645;43.068;25.610;2023-02-07T14:09:23;16.65;;;8.75;;
70985;SDS011;58645;43.068;25.610;2023-02-07T14:12:04;17.50;;;8.35;;
70985;SDS011;58645;43.068;25.610;2023-02-07T14:14:33;18.27;;;8.65;;
70985;SDS011;58645;43.068;25.610;2023-02-07T14:17:02;17.80;;;8.55;;
70985;SDS011;58645;43.068;25.610;2023-02-07T14:32:29;26.75;;;13.43;;
70985;SDS011;58645;43.068;25.610;2023-02-07T14:35:03;30.17;;;14.88;;
70985;SDS011;58645;43.068;25.610;2023-02-07T14:37:53;27.08;;;14.10;;
70985;SDS011;58645;43.068;25.610;2023-02-07T14:40:32;29.25;;;14.38;;
70985;SDS011;58645;43.068;25.610;2023-02-07T14:45:38;20.30;;;9.98;;
70985;SDS011;58645;43.068;25.610;2023-02-07T14:48:31;24.92;;;11.27;;
70985;SDS011;58645;43.068;25.610;2023-02-07T14:51:52;35.20;;;16.60;;
70985;SDS011;58645;43.068;25.610;2023-02-07T14:54:25;34.63;;;17.50;;
70985;SDS011;58645;43.068;25.610;2023-02-07T14:57:15;34.08;;;15.48;;
70985;SDS011;58645;43.068;25.610;2023-02-07T15:02:40;25.60;;;12.82;;
70985;SDS011;58645;43.068;25.610;2023-02-07T15:07:41;24.60;;;11.52;;
70985;SDS011;58645;43.068;25.610;2023-02-07T15:10:21;30.88;;;12.85;;
70985;SDS011;58645;43.068;25.610;2023-02-07T15:12:50;27.10;;;12.95;;
70985;SDS011;58645;43.068;25.610;2023-02-07T15:18:02;27.80;;;13.45;;
70985;SDS011;58645;43.068;25.610;2023-02-07T15:20:33;31.52;;;11.98;;
70985;SDS011;58645;43.068;25.610;2023-02-07T15:23:00;39.22;;;16.17;;
70985;SDS011;58645;43.068;25.610;2023-02-07T15:25:27;32.90;;;14.90;;
70985;SDS011;58645;43.068;25.610;2023-02-07T15:30:26;26.55;;;12.90;;
70985;SDS011;58645;43.068;25.610;2023-02-07T15:32:52;29.80;;;14.00;;
70985;SDS011;58645;43.068;25.610;2023-02-07T15:35:22;30.90;;;14.07;;
70985;SDS011;58645;43.068;25.610;2023-02-07T15:37:52;40.40;;;17.90;;
70985;SDS011;58645;43.068;25.610;2023-02-07T15:40:20;56.40;;;21.25;;
70985;SDS011;58645;43.068;25.610;2023-02-07T15:42:48;28.02;;;13.45;;
70985;SDS011;58645;43.068;25.610;2023-02-07T15:45:28;32.60;;;15.20;;
70985;SDS011;58645;43.068;25.610;2023-02-07T15:48:02;24.13;;;12.43;;
70985;SDS011;58645;43.068;25.610;2023-02-07T15:50:34;25.98;;;13.02;;
70985;SDS011;58645;43.068;25.610;2023-02-07T15:53:02;30.63;;;14.70;;
70985;SDS011;58645;43.068;25.610;2023-02-07T15:58:01;29.08;;;13.27;;
70985;SDS011;58645;43.068;25.610;2023-02-07T16:00:37;30.70;;;14.93;;
70985;SDS011;58645;43.068;25.610;2023-02-07T16:03:19;28.65;;;14.10;;
70985;SDS011;58645;43.068;25.610;2023-02-07T16:05:47;32.85;;;15.68;;
70985;SDS011;58645;43.068;25.610;2023-02-07T16:08:31;31.55;;;16.02;;
70985;SDS011;58645;43.068;25.610;2023-02-07T16:11:38;25.92;;;11.60;;
70985;SDS011;58645;43.068;25.610;2023-02-07T16:14:12;23.85;;;11.73;;
70985;SDS011;58645;43.068;25.610;2023-02-07T16:16:49;27.65;;;12.23;;
70985;SDS011;58645;43.068;25.610;2023-02-07T16:24:25;30.35;;;13.57;;
70985;SDS011;58645;43.068;25.610;2023-02-07T16:26:51;27.20;;;13.40;;
70985;SDS011;58645;43.068;25.610;2023-02-07T16:29:21;41.45;;;14.52;;
70985;SDS011;58645;43.068;25.610;2023-02-07T16:31:50;40.20;;;18.95;;
70985;SDS011;58645;43.068;25.610;2023-02-07T16:34:17;31.83;;;16.30;;
70985;SDS011;58645;43.068;25.610;2023-02-07T16:36:46;28.90;;;14.73;;
70985;SDS011;58645;43.068;25.610;2023-02-07T16:39:14;26.10;;;13.48;;
70985;SDS011;58645;43.068;25.610;2023-02-07T16:41:42;30.10;;;13.43;;
70985;SDS011;58645;43.068;25.610;2023-02-07T16:44:14;27.25;;;12.98;;
70985;SDS011;58645;43.068;25.610;2023-02-07T16:46:43;32.10;;;14.55;;
70985;SDS011;58645;43.068;25.610;2023-02-07T16:49:11;27.55;;;13.88;;
70985;SDS011;58645;43.068;25.610;2023-02-07T16:51:41;26.55;;;12.82;;
70985;SDS011;58645;43.068;25.610;2023-02-07T16:54:08;31.65;;;13.48;;
70985;SDS011;58645;43.068;25.610;2023-02-07T16:56:33;31.38;;;14.07;;
70985;SDS011;58645;43.068;25.610;2023-02-07T16:59:00;31.00;;;14.13;;
70985;SDS011;58645;43.068;25.610;2023-02-07T17:01:27;26.73;;;13.88;;
70985;SDS011;58645;43.068;25.610;2023-02-07T17:03:54;35.20;;;16.65;;
70985;SDS011;58645;43.068;25.610;2023-02-07T17:06:21;28.30;;;13.40;;
70985;SDS011;58645;43.068;25.610;2023-02-07T17:08:48;30.00;;;14.20;;
70985;SDS011;58645;43.068;25.610;2023-02-07T17:11:16;32.47;;;15.15;;
70985;SDS011;58645;43.068;25.610;2023-02-07T17:13:49;38.35;;;17.58;;
70985;SDS011;58645;43.068;25.610;2023-02-07T17:16:19;37.25;;;17.33;;
70985;SDS011;58645;43.068;25.610;2023-02-07T17:18:45;27.73;;;13.30;;
70985;SDS011;58645;43.068;25.610;2023-02-07T17:21:11;34.80;;;15.60;;
70985;SDS011;58645;43.068;25.610;2023-02-07T17:23:38;31.65;;;14.35;;
70985;SDS011;58645;43.068;25.610;2023-02-07T17:26:05;32.25;;;15.90;;
70985;SDS011;58645;43.068;25.610;2023-02-07T17:28:41;35.92;;;15.73;;